createdAt,value
2023-04-07T00:06:21.286Z,16.40
2023-04-07T00:08:50.540Z,15.57
2023-04-07T00:11:19.728Z,15.38
2023-04-07T00:13:48.695Z,15.73
2023-04-07T00:16:19.254Z,14.70
2023-04-07T00:18:49.619Z,15.38
2023-04-07T00:21:20.674Z,15.30
2023-04-07T00:23:49.722Z,13.43
2023-04-07T00:26:20.013Z,16.20
2023-04-07T00:28:49.522Z,15.52
2023-04-07T00:31:17.977Z,12.80
2023-04-07T00:33:45.645Z,13.50
2023-04-07T00:36:14.061Z,13.20
2023-04-07T00:38:41.869Z,12.68
2023-04-07T00:41:10.290Z,13.07
2023-04-07T00:43:41.146Z,14.13
2023-04-07T00:46:09.016Z,12.20
2023-04-07T00:48:38.096Z,10.73
2023-04-07T00:51:07.813Z,11.30
2023-04-07T00:53:35.776Z,10.07
2023-04-07T00:56:04.761Z,10.60
2023-04-07T00:58:32.535Z,12.32
2023-04-07T01:01:05.733Z,10.70
2023-04-07T01:03:36.930Z,9.68
2023-04-07T01:06:07.598Z,9.60
2023-04-07T01:08:41.251Z,10.10
2023-04-07T01:11:25.786Z,10.75
2023-04-07T01:13:56.514Z,10.07
2023-04-07T01:16:49.942Z,9.68
2023-04-07T01:19:32.370Z,8.98
2023-04-07T01:22:04.372Z,10.48
2023-04-07T01:24:31.899Z,11.18
2023-04-07T01:27:03.237Z,9.75
2023-04-07T01:29:36.461Z,10.90
2023-04-07T01:32:06.536Z,10.23
2023-04-07T01:34:36.107Z,11.02
2023-04-07T01:37:07.629Z,10.63
2023-04-07T01:39:40.446Z,10.48
2023-04-07T01:42:09.160Z,10.43
2023-04-07T01:44:38.177Z,10.57
2023-04-07T01:47:07.061Z,10.65
2023-04-07T01:49:37.282Z,10.93
2023-04-07T01:52:06.184Z,9.63
2023-04-07T01:54:33.892Z,8.48
2023-04-07T01:57:02.183Z,8.95
2023-04-07T01:59:29.915Z,8.70
2023-04-07T02:02:00.762Z,8.97
2023-04-07T02:04:29.802Z,8.48
2023-04-07T02:07:00.556Z,8.73
2023-04-07T02:09:40.268Z,8.32
2023-04-07T02:12:10.094Z,7.75
2023-04-07T02:14:42.176Z,8.18
2023-04-07T02:17:19.733Z,7.50
2023-04-07T02:19:55.809Z,6.70
2023-04-07T02:22:23.968Z,8.27
2023-04-07T02:24:52.485Z,7.15
2023-04-07T02:27:27.591Z,8.07
2023-04-07T02:30:01.326Z,7.80
2023-04-07T02:32:28.995Z,7.22
2023-04-07T02:34:58.113Z,7.78
2023-04-07T02:37:26.209Z,7.30
2023-04-07T02:39:53.872Z,7.55
2023-04-07T02:42:22.015Z,7.05
2023-04-07T02:44:49.865Z,7.10
2023-04-07T02:47:18.963Z,7.57
2023-04-07T02:49:47.934Z,8.00
2023-04-07T02:52:15.796Z,8.02
2023-04-07T02:54:44.971Z,8.73
2023-04-07T02:57:13.975Z,8.00
2023-04-07T02:59:41.917Z,7.45
2023-04-07T03:02:11.640Z,9.63
2023-04-07T03:04:39.851Z,7.82
2023-04-07T03:07:09.044Z,7.60
2023-04-07T03:09:36.871Z,8.13
2023-04-07T03:12:04.467Z,8.32
2023-04-07T03:14:36.394Z,7.80
2023-04-07T03:17:04.564Z,8.20
2023-04-07T03:19:33.674Z,8.57
2023-04-07T03:22:01.612Z,8.98
2023-04-07T03:24:34.614Z,9.35
2023-04-07T03:27:03.982Z,10.27
2023-04-07T03:29:51.363Z,9.38
2023-04-07T03:32:22.328Z,10.05
2023-04-07T03:34:50.192Z,10.38
2023-04-07T03:37:20.455Z,10.25
2023-04-07T03:39:50.356Z,10.43
2023-04-07T03:42:29.471Z,10.38
2023-04-07T03:45:03.094Z,11.63
2023-04-07T03:47:32.826Z,11.52
2023-04-07T03:50:02.924Z,12.10
2023-04-07T03:52:35.995Z,12.73
2023-04-07T03:55:12.942Z,12.05
2023-04-07T03:57:41.995Z,13.57
2023-04-07T04:00:10.489Z,14.07
2023-04-07T04:02:44.929Z,15.27
2023-04-07T04:05:19.929Z,13.40
2023-04-07T04:07:51.869Z,13.15
2023-04-07T04:10:24.888Z,14.40
2023-04-07T04:12:54.641Z,14.32
2023-04-07T04:15:23.384Z,14.13
2023-04-07T04:17:51.778Z,13.82
2023-04-07T04:20:20.555Z,13.52
2023-04-07T04:22:51.020Z,12.00
2023-04-07T04:25:22.593Z,12.50
2023-04-07T04:27:54.194Z,11.93
2023-04-07T04:30:25.493Z,11.30
2023-04-07T04:32:57.440Z,11.10
2023-04-07T04:35:39.987Z,12.20
2023-04-07T04:38:15.110Z,10.70
2023-04-07T04:40:48.718Z,10.05
2023-04-07T04:43:19.879Z,9.50
2023-04-07T04:45:52.759Z,9.80
2023-04-07T04:48:24.918Z,9.55
2023-04-07T04:50:52.854Z,9.75
2023-04-07T04:53:22.381Z,9.55
2023-04-07T04:55:56.169Z,8.88
2023-04-07T04:58:53.479Z,9.38
2023-04-07T05:01:36.213Z,9.07
2023-04-07T05:04:11.487Z,9.02
2023-04-07T05:06:45.900Z,8.75
2023-04-07T05:09:19.133Z,8.38
2023-04-07T05:11:49.825Z,8.80
2023-04-07T05:14:18.522Z,8.63
2023-04-07T05:16:54.585Z,7.90
2023-04-07T05:19:29.867Z,8.63
2023-04-07T05:22:04.961Z,8.23
2023-04-07T05:24:41.965Z,8.40
2023-04-07T05:27:09.624Z,7.75
2023-04-07T05:29:39.748Z,8.10
2023-04-07T05:32:11.488Z,7.65
2023-04-07T05:34:40.717Z,8.07
2023-04-07T05:37:08.730Z,8.13
2023-04-07T05:39:36.422Z,8.35
2023-04-07T05:42:06.360Z,8.65
2023-04-07T05:44:35.181Z,8.73
2023-04-07T05:47:06.055Z,8.95
2023-04-07T05:49:34.288Z,9.57
2023-04-07T05:52:06.285Z,10.23
2023-04-07T05:54:47.906Z,9.77
2023-04-07T05:57:18.747Z,10.13
2023-04-07T05:59:49.609Z,10.88
2023-04-07T06:02:18.607Z,10.30
2023-04-07T06:04:54.778Z,10.32
2023-04-07T06:07:22.555Z,9.73
2023-04-07T06:09:53.007Z,9.57
2023-04-07T06:14:53.980Z,10.07
2023-04-07T06:17:23.381Z,10.52
2023-04-07T06:19:51.296Z,10.68
2023-04-07T06:22:22.431Z,10.23
2023-04-07T06:24:53.099Z,10.80
2023-04-07T06:27:22.378Z,11.43
2023-04-07T06:29:51.951Z,10.25
2023-04-07T06:32:20.532Z,10.52
2023-04-07T06:34:49.947Z,11.75
2023-04-07T06:37:18.940Z,12.13
2023-04-07T06:39:47.462Z,11.40
2023-04-07T06:42:15.507Z,11.90
2023-04-07T06:44:52.093Z,12.32
2023-04-07T06:47:19.923Z,12.68
2023-04-07T06:49:48.645Z,12.32
2023-04-07T06:52:18.405Z,12.50
2023-04-07T06:54:46.048Z,12.77
2023-04-07T06:57:15.004Z,13.38
2023-04-07T06:59:42.623Z,11.95
2023-04-07T07:02:10.528Z,13.27
2023-04-07T07:04:38.920Z,13.15
2023-04-07T07:07:09.795Z,14.15
2023-04-07T07:09:37.805Z,14.07
2023-04-07T07:12:06.623Z,14.40
2023-04-07T07:14:34.492Z,13.82
2023-04-07T07:17:02.502Z,13.23
2023-04-07T07:19:29.848Z,15.70
2023-04-07T07:22:01.122Z,13.90
2023-04-07T07:24:29.346Z,14.15
2023-04-07T07:27:00.429Z,14.20
2023-04-07T07:29:31.346Z,14.75
2023-04-07T07:31:58.975Z,13.93
2023-04-07T07:34:27.496Z,13.45
2023-04-07T07:36:55.253Z,13.88
2023-04-07T07:39:23.086Z,13.55
2023-04-07T07:41:51.782Z,15.27
2023-04-07T07:44:23.716Z,14.48
2023-04-07T07:46:51.674Z,14.45
2023-04-07T07:49:20.549Z,14.90
2023-04-07T07:51:48.833Z,14.70
2023-04-07T07:54:18.939Z,13.75
2023-04-07T07:56:47.432Z,15.68
2023-04-07T07:59:16.640Z,15.25
2023-04-07T08:01:45.366Z,14.57
2023-04-07T08:04:14.460Z,15.77
2023-04-07T08:06:42.926Z,15.80
2023-04-07T08:09:10.452Z,13.90
2023-04-07T08:11:38.148Z,14.52
2023-04-07T08:14:06.958Z,15.88
2023-04-07T08:16:36.863Z,14.75
2023-04-07T08:19:04.784Z,15.63
2023-04-07T08:21:32.842Z,14.82
2023-04-07T08:24:01.198Z,14.63
2023-04-07T08:26:29.356Z,13.57
2023-04-07T08:28:56.872Z,13.00
2023-04-07T08:31:24.701Z,13.82
2023-04-07T08:33:58.405Z,12.35
2023-04-07T08:36:27.552Z,13.07
2023-04-07T08:38:55.289Z,14.13
2023-04-07T08:41:28.374Z,12.20
2023-04-07T08:43:56.814Z,10.65
2023-04-07T08:46:26.449Z,10.93
2023-04-07T08:48:54.365Z,11.03
2023-04-07T08:51:32.138Z,10.50
2023-04-07T08:54:06.677Z,10.10
2023-04-07T08:56:34.874Z,9.68
2023-04-07T08:59:03.150Z,9.40
2023-04-07T09:01:32.031Z,9.75
2023-04-07T09:03:59.853Z,8.32
2023-04-07T09:06:27.847Z,8.27
2023-04-07T09:08:55.628Z,8.23
2023-04-07T09:11:24.132Z,8.27
2023-04-07T09:13:52.268Z,7.28
2023-04-07T09:16:21.171Z,6.70
2023-04-07T09:18:52.228Z,7.10
2023-04-07T09:21:20.046Z,7.55
2023-04-07T09:23:48.681Z,6.60
2023-04-07T09:26:22.357Z,5.78
2023-04-07T09:28:51.117Z,6.22
2023-04-07T09:31:22.197Z,6.45
2023-04-07T09:33:50.764Z,6.82
2023-04-07T09:36:19.832Z,7.63
2023-04-07T09:38:50.097Z,7.72
2023-04-07T09:41:18.586Z,8.25
2023-04-07T09:43:47.249Z,7.38
2023-04-07T09:46:17.395Z,7.97
2023-04-07T09:48:45.597Z,8.25
2023-04-07T09:51:18.738Z,7.65
2023-04-07T09:53:51.635Z,7.70
2023-04-07T09:56:22.603Z,6.82
2023-04-07T09:58:53.820Z,6.97
2023-04-07T10:01:23.989Z,6.85
2023-04-07T10:03:53.014Z,5.88
2023-04-07T10:06:20.831Z,6.28
2023-04-07T10:08:52.742Z,6.28
2023-04-07T10:11:23.776Z,5.20
2023-04-07T10:13:53.936Z,5.43
2023-04-07T10:16:22.011Z,5.40
2023-04-07T10:18:50.067Z,8.10
2023-04-07T10:21:18.480Z,8.13
2023-04-07T10:23:55.257Z,8.35
2023-04-07T10:26:27.705Z,9.20
2023-04-07T10:29:02.114Z,10.18
2023-04-07T10:31:30.278Z,10.32
2023-04-07T10:33:58.288Z,9.88
2023-04-07T10:36:26.251Z,10.60
2023-04-07T10:39:10.441Z,9.55
2023-04-07T10:41:38.137Z,9.82
2023-04-07T10:44:07.213Z,10.80
2023-04-07T10:46:50.260Z,10.82
2023-04-07T10:49:19.157Z,11.05
2023-04-07T10:52:07.313Z,10.98
2023-04-07T10:54:35.060Z,10.40
2023-04-07T10:57:14.470Z,11.45
2023-04-07T10:59:47.364Z,10.15
2023-04-07T11:02:15.376Z,9.90
2023-04-07T11:04:44.469Z,8.80
2023-04-07T11:07:12.505Z,9.05
2023-04-07T11:09:42.472Z,9.32
2023-04-07T11:12:22.982Z,10.73
2023-04-07T11:17:19.235Z,8.70
2023-04-07T11:19:53.746Z,8.02
2023-04-07T11:22:29.956Z,7.97
2023-04-07T11:24:58.853Z,7.28
2023-04-07T11:27:28.547Z,7.57
2023-04-07T11:29:59.987Z,6.97
2023-04-07T11:32:30.061Z,7.10
2023-04-07T11:34:58.384Z,6.93
2023-04-07T11:37:29.213Z,6.40
2023-04-07T11:39:58.133Z,7.15
2023-04-07T11:42:35.754Z,6.53
2023-04-07T11:45:03.518Z,6.75
2023-04-07T11:47:39.499Z,6.60
2023-04-07T11:50:07.856Z,6.82
2023-04-07T11:52:42.640Z,7.10
2023-04-07T11:55:24.697Z,7.32
2023-04-07T11:57:52.942Z,6.95
2023-04-07T12:00:21.344Z,6.57
2023-04-07T12:02:49.897Z,6.85
2023-04-07T12:05:18.576Z,7.40
2023-04-07T12:07:54.031Z,7.20
2023-04-07T12:10:31.808Z,6.93
2023-04-07T12:12:59.628Z,7.28
2023-04-07T12:15:27.589Z,7.22
2023-04-07T12:17:55.780Z,6.80
2023-04-07T12:20:23.347Z,7.18
2023-04-07T12:22:50.795Z,7.00
2023-04-07T12:25:19.785Z,7.18
2023-04-07T12:27:51.537Z,6.95
2023-04-07T12:30:19.689Z,7.57
2023-04-07T12:32:48.371Z,7.45
2023-04-07T12:35:16.050Z,7.18
2023-04-07T12:37:45.050Z,7.03
2023-04-07T12:40:13.286Z,6.97
2023-04-07T12:42:40.801Z,5.88
2023-04-07T12:45:08.858Z,7.78
2023-04-07T12:47:37.481Z,7.47
2023-04-07T12:50:05.162Z,7.82
2023-04-07T12:52:33.446Z,7.32
2023-04-07T12:55:00.967Z,8.50
2023-04-07T12:57:28.854Z,8.70
2023-04-07T12:59:56.853Z,8.90
2023-04-07T13:02:29.116Z,9.75
2023-04-07T13:04:56.937Z,9.82
2023-04-07T13:07:24.576Z,10.05
2023-04-07T13:09:55.035Z,9.35
2023-04-07T13:12:22.720Z,9.88
2023-04-07T13:14:59.815Z,9.35
2023-04-07T13:17:29.430Z,9.05
2023-04-07T13:20:00.368Z,8.50
2023-04-07T13:24:56.511Z,7.75
2023-04-07T13:27:24.050Z,8.80
2023-04-07T13:29:51.637Z,8.20
2023-04-07T13:32:35.938Z,8.30
2023-04-07T13:35:03.910Z,7.80
2023-04-07T13:37:34.262Z,7.57
2023-04-07T13:40:02.197Z,6.22
2023-04-07T13:42:29.761Z,6.18
2023-04-07T13:44:57.461Z,5.60
2023-04-07T13:47:26.048Z,6.38
2023-04-07T13:49:54.038Z,7.28
2023-04-07T13:52:22.013Z,6.15
2023-04-07T13:54:51.359Z,5.95
2023-04-07T13:57:21.013Z,7.15
2023-04-07T13:59:54.999Z,5.78
2023-04-07T14:02:25.111Z,6.65
2023-04-07T14:04:53.563Z,6.82
2023-04-07T14:07:21.988Z,5.85
2023-04-07T14:09:50.353Z,5.80
2023-04-07T14:12:22.456Z,5.63
2023-04-07T14:14:54.897Z,6.05
2023-04-07T14:17:23.550Z,5.57
2023-04-07T14:19:58.431Z,5.70
2023-04-07T14:22:26.691Z,5.35
2023-04-07T14:24:56.012Z,4.90
2023-04-07T14:27:24.632Z,5.95
2023-04-07T14:29:53.259Z,6.50
2023-04-07T14:32:30.069Z,5.63
2023-04-07T14:35:03.771Z,5.95
2023-04-07T14:37:31.523Z,6.20
2023-04-07T14:40:03.309Z,5.55
2023-04-07T14:42:31.459Z,5.43
2023-04-07T14:45:00.688Z,5.05
2023-04-07T14:47:28.461Z,5.05
2023-04-07T14:49:56.109Z,5.15
2023-04-07T14:52:24.530Z,4.82
2023-04-07T14:54:52.284Z,5.65
2023-04-07T14:57:25.268Z,5.30
2023-04-07T14:59:53.106Z,5.65
2023-04-07T15:02:20.717Z,6.30
2023-04-07T15:04:53.239Z,6.03
2023-04-07T15:07:21.114Z,6.70
2023-04-07T15:09:50.616Z,6.30
2023-04-07T15:12:22.547Z,7.68
2023-04-07T15:14:54.835Z,5.70
2023-04-07T15:17:32.985Z,6.40
2023-04-07T15:20:09.029Z,7.10
2023-04-07T15:22:37.206Z,7.53
2023-04-07T15:25:05.293Z,6.55
2023-04-07T15:27:36.184Z,6.35
2023-04-07T15:30:04.481Z,6.40
2023-04-07T15:32:32.630Z,6.68
2023-04-07T15:35:00.330Z,6.35
2023-04-07T15:37:28.009Z,6.60
2023-04-07T15:39:55.600Z,5.28
2023-04-07T15:42:23.495Z,5.18
2023-04-07T15:44:51.694Z,5.50
2023-04-07T15:47:28.067Z,5.75
2023-04-07T15:49:56.075Z,5.50
2023-04-07T15:52:23.718Z,5.13
2023-04-07T15:55:02.483Z,5.20
2023-04-07T15:57:31.019Z,5.40
2023-04-07T15:59:58.838Z,5.05
2023-04-07T16:02:27.566Z,5.00
2023-04-07T16:04:59.529Z,6.35
2023-04-07T16:07:27.690Z,6.78
2023-04-07T16:09:56.192Z,6.05
2023-04-07T16:12:23.882Z,5.90
2023-04-07T16:14:51.477Z,5.70
2023-04-07T16:17:21.010Z,4.90
2023-04-07T16:19:50.036Z,5.87
2023-04-07T16:22:21.148Z,6.00
2023-04-07T16:24:50.624Z,7.13
2023-04-07T16:27:21.023Z,6.70
2023-04-07T16:32:19.075Z,6.00
2023-04-07T16:34:48.981Z,7.60
2023-04-07T16:37:19.521Z,6.38
2023-04-07T16:42:20.192Z,7.43
2023-04-07T16:44:48.915Z,6.97
2023-04-07T16:47:17.889Z,7.18
2023-04-07T16:49:45.914Z,7.13
2023-04-07T16:52:13.369Z,7.45
2023-04-07T16:54:41.418Z,7.60
2023-04-07T16:57:09.123Z,7.45
2023-04-07T16:59:36.796Z,8.43
2023-04-07T17:02:11.927Z,8.30
2023-04-07T17:04:42.183Z,7.45
2023-04-07T17:07:10.062Z,7.65
2023-04-07T17:09:38.391Z,7.70
2023-04-07T17:12:06.380Z,7.18
2023-04-07T17:14:34.505Z,6.63
2023-04-07T17:17:02.892Z,7.65
2023-04-07T17:19:30.670Z,7.20
2023-04-07T17:21:58.787Z,7.32
2023-04-07T17:24:26.411Z,6.53
2023-04-07T17:26:54.083Z,7.35
2023-04-07T17:29:26.227Z,8.65
2023-04-07T17:31:53.814Z,7.28
2023-04-07T17:34:21.697Z,7.25
2023-04-07T17:36:49.562Z,7.00
2023-04-07T17:39:22.705Z,7.32
2023-04-07T17:41:50.685Z,7.15
2023-04-07T17:44:19.206Z,7.07
2023-04-07T17:46:50.410Z,6.80
2023-04-07T17:49:19.924Z,7.10
2023-04-07T17:51:51.055Z,6.97
2023-04-07T17:54:20.674Z,7.10
2023-04-07T17:56:49.503Z,7.00
2023-04-07T17:59:20.262Z,6.97
2023-04-07T18:01:48.579Z,7.15
2023-04-07T18:04:19.240Z,6.22
2023-04-07T18:06:49.319Z,6.00
2023-04-07T18:09:18.098Z,6.18
2023-04-07T18:11:47.736Z,6.55
2023-04-07T18:16:58.488Z,6.63
2023-04-07T18:19:26.169Z,6.43
2023-04-07T18:21:54.585Z,7.22
2023-04-07T18:24:24.189Z,7.68
2023-04-07T18:26:51.900Z,7.17
2023-04-07T18:29:21.223Z,6.88
2023-04-07T18:31:51.661Z,7.75
2023-04-07T18:36:48.498Z,8.50
2023-04-07T18:39:16.502Z,8.70
2023-04-07T18:41:48.416Z,9.25
2023-04-07T18:44:16.827Z,9.60
2023-04-07T18:46:49.160Z,9.45
2023-04-07T18:49:18.484Z,9.05
2023-04-07T18:51:48.405Z,10.55
2023-04-07T18:54:17.483Z,9.43
2023-04-07T18:56:46.703Z,9.57
2023-04-07T18:59:18.211Z,10.13
2023-04-07T19:01:47.674Z,11.95
2023-04-07T19:04:20.871Z,10.30
2023-04-07T19:06:53.497Z,11.60
2023-04-07T19:09:21.876Z,11.27
2023-04-07T19:11:50.127Z,12.27
2023-04-07T19:14:21.597Z,13.88
2023-04-07T19:16:50.939Z,14.82
2023-04-07T19:19:26.528Z,15.05
2023-04-07T19:21:55.301Z,13.70
2023-04-07T19:24:22.974Z,15.95
2023-04-07T19:26:51.880Z,17.60
2023-04-07T19:29:19.643Z,17.33
2023-04-07T19:31:51.313Z,16.58
2023-04-07T19:34:19.971Z,19.65
2023-04-07T19:36:48.739Z,19.85
2023-04-07T19:39:17.678Z,20.05
2023-04-07T19:41:45.371Z,19.98
2023-04-07T19:44:13.069Z,20.73
2023-04-07T19:46:41.258Z,22.63
2023-04-07T19:49:08.955Z,21.50
2023-04-07T19:51:37.687Z,22.55
2023-04-07T19:54:05.212Z,21.90
2023-04-07T19:56:33.941Z,21.63
2023-04-07T19:59:02.630Z,21.92
2023-04-07T20:01:30.454Z,21.25
2023-04-07T20:03:58.205Z,20.67
2023-04-07T20:06:28.476Z,22.10
2023-04-07T20:08:58.726Z,22.05
2023-04-07T20:11:29.021Z,21.02
2023-04-07T20:13:56.549Z,22.10
2023-04-07T20:16:24.755Z,21.25
2023-04-07T20:18:53.067Z,21.23
2023-04-07T20:21:20.918Z,20.90
2023-04-07T20:23:50.781Z,22.40
2023-04-07T20:26:22.522Z,22.20
2023-04-07T20:28:51.460Z,22.85
2023-04-07T20:31:19.845Z,23.85
2023-04-07T20:33:49.194Z,22.50
2023-04-07T20:36:18.448Z,23.60
2023-04-07T20:38:46.068Z,22.10
2023-04-07T20:41:17.377Z,22.80
2023-04-07T20:43:45.166Z,23.10
2023-04-07T20:46:13.608Z,23.23
2023-04-07T20:48:41.348Z,23.50
2023-04-07T20:51:09.005Z,23.52
2023-04-07T20:53:37.461Z,23.55
2023-04-07T20:56:06.071Z,23.42
2023-04-07T20:58:34.295Z,23.38
2023-04-07T21:01:02.020Z,24.10
2023-04-07T21:03:31.087Z,23.23
2023-04-07T21:05:59.193Z,25.15
2023-04-07T21:08:27.175Z,23.58
2023-04-07T21:10:56.300Z,25.13
2023-04-07T21:13:26.288Z,25.35
2023-04-07T21:15:54.397Z,25.13
2023-04-07T21:18:27.776Z,25.17
2023-04-07T21:21:02.366Z,25.15
2023-04-07T21:23:32.072Z,25.80
2023-04-07T21:26:06.004Z,24.10
2023-04-07T21:28:34.665Z,26.27
2023-04-07T21:31:03.854Z,25.02
2023-04-07T21:33:31.761Z,25.55
2023-04-07T21:36:03.394Z,26.58
2023-04-07T21:38:31.560Z,25.77
2023-04-07T21:40:59.580Z,25.63
2023-04-07T21:43:29.080Z,26.75
2023-04-07T21:45:57.222Z,26.37
2023-04-07T21:48:24.801Z,26.80
2023-04-07T21:50:53.070Z,27.23
2023-04-07T21:53:20.607Z,27.55
2023-04-07T21:55:48.578Z,28.67
2023-04-07T21:58:19.303Z,27.73
2023-04-07T22:00:50.263Z,28.27
2023-04-07T22:03:19.586Z,27.60
2023-04-07T22:05:48.645Z,27.02
2023-04-07T22:08:17.785Z,28.70
2023-04-07T22:10:49.332Z,27.67
2023-04-07T22:13:21.260Z,29.52
2023-04-07T22:15:52.862Z,27.30
2023-04-07T22:18:22.099Z,27.85
2023-04-07T22:20:50.471Z,27.23
2023-04-07T22:23:18.857Z,26.10
2023-04-07T22:25:48.420Z,26.20
2023-04-07T22:28:16.078Z,25.43
2023-04-07T22:30:44.994Z,25.90
2023-04-07T22:33:18.870Z,27.13
2023-04-07T22:35:48.930Z,26.77
2023-04-07T22:38:19.652Z,26.55
2023-04-07T22:40:48.393Z,26.70
2023-04-07T22:43:19.686Z,26.08
2023-04-07T22:45:48.736Z,26.58
2023-04-07T22:48:18.879Z,25.13
2023-04-07T22:50:49.191Z,25.25
2023-04-07T22:53:18.878Z,25.52
2023-04-07T22:55:47.531Z,24.67
2023-04-07T22:58:15.192Z,25.85
2023-04-07T23:00:42.969Z,26.40
2023-04-07T23:03:11.282Z,26.52
2023-04-07T23:05:38.920Z,25.77
2023-04-07T23:08:06.381Z,26.48
2023-04-07T23:10:34.287Z,27.05
2023-04-07T23:13:02.130Z,25.77
2023-04-07T23:15:29.847Z,26.02
2023-04-07T23:17:58.613Z,25.73
2023-04-07T23:20:27.387Z,26.85
2023-04-07T23:22:56.735Z,24.85
2023-04-07T23:25:24.726Z,26.52
2023-04-07T23:27:52.340Z,25.90
2023-04-07T23:30:20.117Z,26.00
2023-04-07T23:32:48.788Z,26.98
2023-04-07T23:35:17.756Z,27.75
2023-04-07T23:37:45.410Z,28.63
2023-04-07T23:40:13.618Z,28.13
2023-04-07T23:42:41.195Z,28.23
2023-04-07T23:45:08.908Z,27.80
2023-04-07T23:47:40.329Z,28.98
2023-04-07T23:50:08.324Z,28.70
2023-04-07T23:52:36.042Z,29.23
2023-04-07T23:55:03.554Z,27.70
2023-04-07T23:57:32.447Z,28.52
